createdAt,value
2023-01-30T00:00:34.878Z,-1.9
2023-01-30T00:05:34.859Z,-1.9
2023-01-30T00:10:34.851Z,-1.9
2023-01-30T00:15:34.834Z,-1.9
2023-01-30T00:20:34.895Z,-1.9
2023-01-30T00:25:34.816Z,-1.9
2023-01-30T00:30:34.880Z,-1.9
2023-01-30T00:35:34.968Z,-2
2023-01-30T00:40:34.768Z,-2
2023-01-30T00:45:34.752Z,-2.1
2023-01-30T00:50:34.885Z,-2.1
2023-01-30T00:55:34.921Z,-2.1
2023-01-30T01:00:34.885Z,-2.2
2023-01-30T01:05:34.899Z,-2.2
2023-01-30T01:10:34.854Z,-2.3
2023-01-30T01:15:34.825Z,-2.4
2023-01-30T01:20:34.780Z,-2.4
2023-01-30T01:25:34.673Z,-2.4
2023-01-30T01:30:34.776Z,-2.4
2023-01-30T01:35:34.605Z,-2.5
2023-01-30T01:40:34.794Z,-2.5
2023-01-30T01:45:34.576Z,-2.5
2023-01-30T01:50:34.735Z,-2.5
2023-01-30T01:55:34.728Z,-2.5
2023-01-30T02:00:34.702Z,-2.5
2023-01-30T02:05:34.651Z,-2.4
2023-01-30T02:10:34.576Z,-2.4
2023-01-30T02:15:34.627Z,-2.4
2023-01-30T02:20:34.464Z,-2.4
2023-01-30T02:25:34.597Z,-2.4
2023-01-30T02:30:34.688Z,-2.4
2023-01-30T02:35:34.533Z,-2.4
2023-01-30T02:40:34.574Z,-2.4
2023-01-30T02:45:34.573Z,-2.4
2023-01-30T02:50:34.583Z,-2.4
2023-01-30T02:55:34.535Z,-2.4
2023-01-30T03:00:34.526Z,-2.5
2023-01-30T03:05:34.473Z,-2.4
2023-01-30T03:10:34.564Z,-2.5
2023-01-30T03:15:34.448Z,-2.5
2023-01-30T03:20:34.411Z,-2.4
2023-01-30T03:25:34.399Z,-2.4
2023-01-30T03:30:34.451Z,-2.3
2023-01-30T03:35:34.412Z,-2.1
2023-01-30T03:40:34.355Z,-2
2023-01-30T03:45:34.217Z,-1.9
2023-01-30T03:50:34.193Z,-1.8
2023-01-30T03:55:34.228Z,-1.7
2023-01-30T04:00:34.354Z,-1.6
2023-01-30T04:05:34.336Z,-1.5
2023-01-30T04:10:34.199Z,-1.5
2023-01-30T04:15:34.271Z,-1.4
2023-01-30T04:20:34.292Z,-1.3
2023-01-30T04:25:34.209Z,-1.3
2023-01-30T04:30:34.271Z,-1.3
2023-01-30T04:35:34.057Z,-1.2
2023-01-30T04:40:34.172Z,-1.3
2023-01-30T04:45:34.211Z,-1.2
2023-01-30T04:50:34.066Z,-1.1
2023-01-30T04:55:34.165Z,-1
2023-01-30T05:00:34.098Z,-0.9
2023-01-30T05:05:34.069Z,-0.8
2023-01-30T05:10:34.133Z,-0.7
2023-01-30T05:15:34.096Z,-0.7
2023-01-30T05:20:34.103Z,-0.6
2023-01-30T05:25:33.973Z,-0.5
2023-01-30T05:30:33.974Z,-0.5
2023-01-30T05:35:33.968Z,-0.5
2023-01-30T05:40:34.023Z,-0.5
2023-01-30T05:45:34.043Z,-0.5
2023-01-30T05:50:33.996Z,-0.4
2023-01-30T05:55:33.822Z,-0.3
2023-01-30T06:00:33.792Z,-0.3
2023-01-30T06:05:33.917Z,-0.2
2023-01-30T06:10:33.811Z,-0.1
2023-01-30T06:15:33.794Z,0
2023-01-30T06:20:33.766Z,0.1
2023-01-30T06:25:33.811Z,0.1
2023-01-30T06:30:33.724Z,0.2
2023-01-30T06:35:33.835Z,0.2
2023-01-30T06:40:33.793Z,0.2
2023-01-30T06:45:33.771Z,0.2
2023-01-30T06:50:33.727Z,0.3
2023-01-30T06:55:33.812Z,0.3
2023-01-30T07:00:33.607Z,0.3
2023-01-30T07:05:33.608Z,0.3
2023-01-30T07:10:33.671Z,0.4
2023-01-30T07:15:33.580Z,0.4
2023-01-30T07:20:33.587Z,0.4
2023-01-30T07:25:33.529Z,0.4
2023-01-30T07:30:33.589Z,0.4
2023-01-30T07:35:33.543Z,0.5
2023-01-30T07:40:33.687Z,0.5
2023-01-30T07:45:33.595Z,0.6
2023-01-30T07:50:33.487Z,0.6
2023-01-30T07:55:33.499Z,0.7
2023-01-30T08:00:33.579Z,0.7
2023-01-30T08:05:33.475Z,0.8
2023-01-30T08:10:33.515Z,0.8
2023-01-30T08:15:33.363Z,0.8
2023-01-30T08:20:33.498Z,0.9
2023-01-30T08:25:33.401Z,0.9
2023-01-30T08:30:33.317Z,1
2023-01-30T08:35:33.320Z,1
2023-01-30T08:40:33.354Z,1
2023-01-30T08:45:33.371Z,1.1
2023-01-30T08:50:33.277Z,1.1
2023-01-30T08:55:33.248Z,1.2
2023-01-30T09:00:33.228Z,1.2
2023-01-30T09:05:33.333Z,1.3
2023-01-30T09:10:33.362Z,1.3
2023-01-30T09:15:33.165Z,1.4
2023-01-30T09:20:33.190Z,1.4
2023-01-30T09:25:33.296Z,1.5
2023-01-30T09:30:33.219Z,1.7
2023-01-30T09:35:33.189Z,1.8
2023-01-30T09:40:33.202Z,1.8
2023-01-30T09:45:33.298Z,1.9
2023-01-30T09:50:33.102Z,1.9
2023-01-30T09:55:33.261Z,1.9
2023-01-30T10:00:33.026Z,1.9
2023-01-30T10:05:33.086Z,2
2023-01-30T10:10:33.103Z,2
2023-01-30T10:15:33.123Z,2
2023-01-30T10:20:33.128Z,2.1
2023-01-30T10:25:33.086Z,2.1
2023-01-30T10:30:32.917Z,2.2
2023-01-30T10:35:33.062Z,2.2
2023-01-30T10:40:33.028Z,2.3
2023-01-30T10:45:32.901Z,2.3
2023-01-30T10:50:32.991Z,2.3
2023-01-30T10:55:32.841Z,2.4
2023-01-30T11:00:32.879Z,2.4
2023-01-30T11:05:32.963Z,2.4
2023-01-30T11:10:32.829Z,2.4
2023-01-30T11:15:32.756Z,2.4
2023-01-30T11:25:32.844Z,2.5
2023-01-30T11:30:32.874Z,2.5
2023-01-30T11:35:32.857Z,2.5
2023-01-30T11:40:32.668Z,2.5
2023-01-30T11:45:32.729Z,2.5
2023-01-30T11:50:32.828Z,2.6
2023-01-30T11:55:32.653Z,2.5
2023-01-30T12:00:32.599Z,2.6
2023-01-30T12:05:32.751Z,2.6
2023-01-30T12:10:32.567Z,2.6
2023-01-30T12:15:32.702Z,2.6
2023-01-30T12:20:32.697Z,2.6
2023-01-30T12:25:32.654Z,2.6
2023-01-30T12:30:32.688Z,2.7
2023-01-30T12:35:32.630Z,2.7
2023-01-30T12:40:32.472Z,2.7
2023-01-30T12:45:32.488Z,2.7
2023-01-30T12:50:32.595Z,2.7
2023-01-30T12:55:32.523Z,2.7
2023-01-30T13:00:32.548Z,2.7
2023-01-30T13:05:32.528Z,2.6
2023-01-30T13:10:32.364Z,2.4
2023-01-30T13:15:32.427Z,2.4
2023-01-30T13:20:32.377Z,2.4
2023-01-30T13:25:32.481Z,2.4
2023-01-30T13:30:32.448Z,2.4
2023-01-30T13:35:32.477Z,2.4
2023-01-30T13:40:32.329Z,2.4
2023-01-30T13:45:32.251Z,2.4
2023-01-30T13:50:32.228Z,2.4
2023-01-30T13:55:32.214Z,2.5
2023-01-30T14:00:32.249Z,2.5
2023-01-30T14:05:32.176Z,2.5
2023-01-30T14:10:32.330Z,2.5
2023-01-30T14:25:32.115Z,2.6
2023-01-30T14:30:32.253Z,2.6
2023-01-30T14:35:32.299Z,2.6
2023-01-30T14:40:32.226Z,2.6
2023-01-30T14:45:32.038Z,2.7
2023-01-30T14:50:32.170Z,2.7
2023-01-30T14:55:32.191Z,2.7
2023-01-30T15:00:31.997Z,2.7
2023-01-30T15:05:32.108Z,2.7
2023-01-30T15:10:32.179Z,2.8
2023-01-30T15:15:32.133Z,2.8
2023-01-30T15:20:32.350Z,2.8
2023-01-30T15:25:32.076Z,2.9
2023-01-30T15:30:31.912Z,2.9
2023-01-30T15:35:31.949Z,2.9
2023-01-30T15:40:31.969Z,2.9
2023-01-30T15:45:32.060Z,2.9
2023-01-30T15:50:31.948Z,2.9
2023-01-30T15:55:31.950Z,2.9
2023-01-30T16:00:31.930Z,2.9
2023-01-30T16:05:31.920Z,2.9
2023-01-30T16:10:31.869Z,2.9
2023-01-30T16:15:31.737Z,2.9
2023-01-30T16:20:31.715Z,2.9
2023-01-30T16:25:31.698Z,2.9
2023-01-30T16:30:31.849Z,2.9
2023-01-30T16:35:31.798Z,2.9
2023-01-30T16:40:31.776Z,2.9
2023-01-30T16:45:31.733Z,3
2023-01-30T16:50:31.691Z,3
2023-01-30T16:55:31.664Z,3
2023-01-30T17:00:31.702Z,3
2023-01-30T17:05:31.562Z,3
2023-01-30T17:10:31.742Z,3
2023-01-30T17:15:31.747Z,3
2023-01-30T17:20:31.688Z,3
2023-01-30T17:25:31.615Z,3
2023-01-30T17:30:31.516Z,3
2023-01-30T17:35:31.680Z,3
2023-01-30T17:40:31.437Z,3
2023-01-30T17:45:31.658Z,3
2023-01-30T17:50:31.551Z,3
2023-01-30T17:55:31.582Z,2.9
2023-01-30T18:00:31.548Z,3
2023-01-30T18:05:31.426Z,3
2023-01-30T18:10:31.358Z,3
2023-01-30T18:15:31.399Z,3
2023-01-30T18:20:31.503Z,3
2023-01-30T18:25:31.423Z,3
2023-01-30T18:30:31.304Z,3
2023-01-30T18:35:31.363Z,3
2023-01-30T18:40:31.420Z,2.9
2023-01-30T18:45:31.339Z,2.9
2023-01-30T18:50:31.373Z,2.9
2023-01-30T18:55:31.355Z,3
2023-01-30T19:00:31.392Z,3
2023-01-30T19:05:31.306Z,3
2023-01-30T19:10:31.323Z,3
2023-01-30T19:15:31.182Z,3
2023-01-30T19:20:31.105Z,2.9
2023-01-30T19:25:31.202Z,3
2023-01-30T19:30:31.075Z,2.9
2023-01-30T19:35:31.176Z,2.9
2023-01-30T19:40:31.139Z,3
2023-01-30T19:45:31.190Z,3
2023-01-30T19:50:31.162Z,3
2023-01-30T19:55:31.140Z,3
2023-01-30T20:00:31.026Z,3.1
2023-01-30T20:05:30.939Z,3.1
2023-01-30T20:10:31.019Z,3.1
2023-01-30T20:15:30.969Z,3.2
2023-01-30T20:20:31.001Z,3.2
2023-01-30T20:25:30.879Z,3.2
2023-01-30T20:30:31.042Z,3.2
2023-01-30T20:35:31.018Z,3.3
2023-01-30T20:40:30.972Z,3.3
2023-01-30T20:45:30.972Z,3.3
2023-01-30T20:50:30.806Z,3.3
2023-01-30T20:55:30.970Z,3.3
2023-01-30T21:00:30.877Z,3.3
2023-01-30T21:05:30.827Z,3.4
2023-01-30T21:10:30.728Z,3.4
2023-01-30T21:15:30.806Z,3.4
2023-01-30T21:20:30.848Z,3.4
2023-01-30T21:25:30.845Z,3.4
2023-01-30T21:30:30.717Z,3.4
2023-01-30T21:35:30.846Z,3.4
2023-01-30T21:40:30.764Z,3.3
2023-01-30T21:45:30.809Z,3.4
2023-01-30T21:50:30.631Z,3.4
2023-01-30T21:55:30.729Z,3.4
2023-01-30T22:00:30.686Z,3.4
2023-01-30T22:05:30.664Z,3.4
2023-01-30T22:10:30.636Z,3.4
2023-01-30T22:15:30.588Z,3.4
2023-01-30T22:20:30.592Z,3.4
2023-01-30T22:25:30.459Z,3.4
2023-01-30T22:30:30.436Z,3.4
2023-01-30T22:35:30.546Z,3.4
2023-01-30T22:40:30.605Z,3.4
2023-01-30T22:45:30.492Z,3.3
2023-01-30T22:50:30.492Z,3.3
2023-01-30T22:55:30.367Z,3.3
2023-01-30T23:00:30.424Z,3.3
2023-01-30T23:05:30.335Z,3.3
2023-01-30T23:10:30.300Z,3.2
2023-01-30T23:15:30.311Z,3.2
2023-01-30T23:20:30.425Z,3.2
2023-01-30T23:25:30.382Z,3.1
2023-01-30T23:30:30.337Z,3.1
2023-01-30T23:35:30.321Z,3.1
2023-01-30T23:40:30.368Z,3.1
2023-01-30T23:45:30.179Z,3
2023-01-30T23:50:30.243Z,3
2023-01-30T23:55:30.277Z,2.9
